createdAt,value
2022-10-19T00:02:20.238Z,45.67
2022-10-19T00:06:38.231Z,63.13
2022-10-19T00:10:55.577Z,65.53
2022-10-19T00:15:13.018Z,59.88
2022-10-19T00:19:30.299Z,74.93
2022-10-19T00:23:48.805Z,84.78
2022-10-19T00:28:06.118Z,93.07
2022-10-19T00:32:23.678Z,78.70
2022-10-19T00:36:42.192Z,269.55
2022-10-19T00:40:59.516Z,301.85
2022-10-19T00:45:17.863Z,156.18
2022-10-19T00:49:39.799Z,72.72
2022-10-19T00:53:58.092Z,78.47
2022-10-19T00:58:15.662Z,63.28
2022-10-19T01:02:33.314Z,60.47
2022-10-19T01:11:34.141Z,49.20
2022-10-19T01:15:57.793Z,41.85
2022-10-19T01:20:47.827Z,49.83
2022-10-19T01:30:07.724Z,64.43
2022-10-19T01:34:50.049Z,54.10
2022-10-19T01:39:26.430Z,64.38
2022-10-19T01:44:18.264Z,63.38
2022-10-19T01:48:38.517Z,54.05
2022-10-19T01:52:57.264Z,56.72
2022-10-19T01:57:20.822Z,120.53
2022-10-19T02:01:42.716Z,73.13
2022-10-19T02:06:01.568Z,78.10
2022-10-19T02:14:42.948Z,52.00
2022-10-19T02:19:01.961Z,71.10
2022-10-19T02:23:24.863Z,273.48
2022-10-19T02:27:42.893Z,113.93
2022-10-19T02:32:01.184Z,62.60
2022-10-19T02:36:19.704Z,75.30
2022-10-19T02:40:41.629Z,60.45
2022-10-19T02:45:08.277Z,77.75
2022-10-19T02:49:26.855Z,58.95
2022-10-19T02:53:44.210Z,69.38
2022-10-19T02:58:01.545Z,145.40
2022-10-19T03:02:20.508Z,99.28
2022-10-19T03:06:37.734Z,72.65
2022-10-19T03:10:54.946Z,88.43
2022-10-19T03:15:23.793Z,65.68
2022-10-19T03:19:41.045Z,73.13
2022-10-19T03:24:00.670Z,114.13
2022-10-19T03:28:17.937Z,75.05
2022-10-19T03:32:35.094Z,146.70
2022-10-19T03:36:52.416Z,186.05
2022-10-19T03:41:10.048Z,73.93
2022-10-19T03:45:27.263Z,200.25
2022-10-19T03:49:44.661Z,229.18
2022-10-19T03:54:05.025Z,137.10
2022-10-19T03:58:22.188Z,88.30
2022-10-19T04:02:39.443Z,166.88
2022-10-19T04:06:56.624Z,166.02
2022-10-19T04:11:15.612Z,74.35
2022-10-19T04:15:32.837Z,141.55
2022-10-19T04:19:50.013Z,188.00
2022-10-19T04:24:15.262Z,107.25
2022-10-19T04:28:33.572Z,141.13
2022-10-19T04:32:50.814Z,211.15
2022-10-19T04:37:08.016Z,145.75
2022-10-19T04:41:25.829Z,61.25
2022-10-19T04:45:43.019Z,72.97
2022-10-19T04:50:00.213Z,239.70
2022-10-19T04:54:17.425Z,100.95
2022-10-19T04:58:34.856Z,78.32
2022-10-19T05:02:52.041Z,79.97
2022-10-19T05:07:09.358Z,266.05
2022-10-19T05:11:27.344Z,84.13
2022-10-19T05:15:44.544Z,81.43
2022-10-19T05:20:02.127Z,69.72
2022-10-19T05:24:19.409Z,73.40
2022-10-19T05:28:37.578Z,66.40
2022-10-19T05:32:54.850Z,64.90
2022-10-19T05:37:12.088Z,72.97
2022-10-19T05:41:29.315Z,65.20
2022-10-19T05:45:46.512Z,64.72
2022-10-19T05:50:04.023Z,54.20
2022-10-19T05:54:23.744Z,58.65
2022-10-19T05:58:43.603Z,63.58
2022-10-19T06:03:00.807Z,57.33
2022-10-19T06:07:18.059Z,58.75
2022-10-19T06:11:39.973Z,56.33
2022-10-19T06:15:57.175Z,56.65
2022-10-19T06:20:14.536Z,49.40
2022-10-19T06:24:31.811Z,62.75
2022-10-19T06:28:49.974Z,39.85
2022-10-19T06:33:07.668Z,46.60
2022-10-19T06:37:24.895Z,36.33
2022-10-19T06:41:42.262Z,59.35
2022-10-19T06:46:03.680Z,36.72
2022-10-19T06:50:21.027Z,44.00
2022-10-19T06:54:38.226Z,40.15
2022-10-19T06:58:55.828Z,38.78
2022-10-19T07:03:13.059Z,34.85
2022-10-19T07:07:30.502Z,50.50
2022-10-19T07:11:47.925Z,26.48
2022-10-19T07:16:14.576Z,29.55
2022-10-19T07:20:34.976Z,24.48
2022-10-19T07:24:52.397Z,21.17
2022-10-19T07:29:10.327Z,22.90
2022-10-19T07:33:27.717Z,20.13
2022-10-19T07:37:45.020Z,21.55
2022-10-19T07:42:02.312Z,13.32
2022-10-19T07:46:22.461Z,17.38
2022-10-19T07:50:39.625Z,13.85
2022-10-19T07:54:56.799Z,15.02
2022-10-19T07:59:16.227Z,19.70
2022-10-19T08:08:11.652Z,11.98
2022-10-19T08:12:28.842Z,13.35
2022-10-19T08:16:46.032Z,14.32
2022-10-19T08:21:03.336Z,14.75
2022-10-19T08:25:20.550Z,9.60
2022-10-19T08:29:37.749Z,10.27
2022-10-19T08:33:54.938Z,11.68
2022-10-19T08:38:12.167Z,10.43
2022-10-19T08:42:43.316Z,12.55
2022-10-19T08:47:26.689Z,16.45
2022-10-19T08:51:48.602Z,14.52
2022-10-19T08:56:26.899Z,9.43
2022-10-19T09:00:56.961Z,10.15
2022-10-19T09:05:38.729Z,10.55
2022-10-19T09:10:00.242Z,9.32
2022-10-19T09:14:27.322Z,8.75
2022-10-19T09:18:47.053Z,7.45
2022-10-19T09:23:13.368Z,8.10
2022-10-19T09:27:38.280Z,12.43
2022-10-19T09:36:22.824Z,6.93
2022-10-19T09:40:45.042Z,6.47
2022-10-19T09:45:17.138Z,8.30
2022-10-19T09:49:47.237Z,10.32
2022-10-19T09:54:04.463Z,12.55
2022-10-19T09:58:29.111Z,8.93
2022-10-19T10:02:51.931Z,9.98
2022-10-19T10:07:16.483Z,10.20
2022-10-19T10:11:38.493Z,5.57
2022-10-19T10:16:01.378Z,7.55
2022-10-19T10:20:36.520Z,9.20
2022-10-19T10:24:56.018Z,9.65
2022-10-19T10:29:25.084Z,5.88
2022-10-19T10:33:46.000Z,8.45
2022-10-19T10:38:50.915Z,8.48
2022-10-19T10:43:18.421Z,7.75
2022-10-19T10:47:39.465Z,5.30
2022-10-19T10:52:10.643Z,10.32
2022-10-19T10:56:29.942Z,7.55
2022-10-19T11:00:50.479Z,3.72
2022-10-19T11:05:17.512Z,8.10
2022-10-19T11:09:44.431Z,4.30
2022-10-19T11:14:07.441Z,5.15
2022-10-19T11:18:30.335Z,9.13
2022-10-19T11:23:07.934Z,4.38
2022-10-19T11:27:29.280Z,4.03
2022-10-19T11:31:53.692Z,3.83
2022-10-19T11:36:28.953Z,8.57
2022-10-19T11:41:18.182Z,5.65
2022-10-19T11:45:47.402Z,10.40
2022-10-19T11:50:54.553Z,5.82
2022-10-19T11:55:23.648Z,6.07
2022-10-19T11:59:46.872Z,7.97
2022-10-19T12:04:22.147Z,6.18
2022-10-19T12:09:13.337Z,5.53
2022-10-19T12:13:44.711Z,4.50
2022-10-19T12:18:29.488Z,9.48
2022-10-19T12:22:48.110Z,6.90
2022-10-19T12:27:06.717Z,5.57
2022-10-19T12:31:24.995Z,5.90
2022-10-19T12:36:18.801Z,6.18
2022-10-19T12:40:46.205Z,6.20
2022-10-19T12:45:34.684Z,3.67
2022-10-19T12:49:55.002Z,3.55
2022-10-19T12:54:12.734Z,4.80
2022-10-19T12:58:55.225Z,5.70
2022-10-19T13:03:26.324Z,5.05
2022-10-19T13:12:22.075Z,7.90
2022-10-19T13:21:50.851Z,5.25
2022-10-19T13:26:30.936Z,7.25
2022-10-19T13:30:48.157Z,5.68
2022-10-19T13:35:38.979Z,3.15
2022-10-19T13:39:56.445Z,6.93
2022-10-19T13:44:15.035Z,4.10
2022-10-19T13:48:44.705Z,3.85
2022-10-19T13:53:18.887Z,4.75
2022-10-19T13:57:59.198Z,5.65
2022-10-19T14:02:28.139Z,5.63
2022-10-19T14:07:01.963Z,6.68
2022-10-19T14:11:25.585Z,6.75
2022-10-19T14:15:52.478Z,4.28
2022-10-19T14:20:27.674Z,8.07
2022-10-19T14:24:44.870Z,5.10
2022-10-19T14:29:02.252Z,4.88
2022-10-19T14:33:19.876Z,5.05
2022-10-19T14:37:37.797Z,4.13
2022-10-19T14:41:55.791Z,3.80
2022-10-19T14:46:15.298Z,7.53
2022-10-19T14:50:44.287Z,6.65
2022-10-19T14:55:08.261Z,3.80
2022-10-19T14:59:35.228Z,6.70
2022-10-19T15:03:53.131Z,3.50
2022-10-19T15:08:26.527Z,3.78
2022-10-19T15:12:44.371Z,8.88
2022-10-19T15:17:03.901Z,46.38
2022-10-19T15:21:21.664Z,3.70
2022-10-19T15:25:39.034Z,4.78
2022-10-19T15:30:02.337Z,8.10
2022-10-19T15:34:25.569Z,6.10
2022-10-19T15:39:11.400Z,4.68
2022-10-19T15:43:45.618Z,6.22
2022-10-19T15:48:16.482Z,9.07
2022-10-19T15:52:34.140Z,5.90
2022-10-19T15:56:52.536Z,5.72
2022-10-19T16:01:22.515Z,8.65
2022-10-19T16:05:39.904Z,6.25
2022-10-19T16:09:57.901Z,5.18
2022-10-19T16:14:18.189Z,5.70
2022-10-19T16:18:35.478Z,6.80
2022-10-19T16:22:52.984Z,3.20
2022-10-19T16:27:14.938Z,7.47
2022-10-19T16:31:32.173Z,5.32
2022-10-19T16:35:49.425Z,7.07
2022-10-19T16:40:07.313Z,4.05
2022-10-19T16:44:24.579Z,4.63
2022-10-19T16:48:41.962Z,6.95
2022-10-19T16:53:13.036Z,4.50
2022-10-19T16:57:30.197Z,5.95
2022-10-19T17:01:48.120Z,5.13
2022-10-19T17:06:07.538Z,8.50
2022-10-19T17:10:25.099Z,7.40
2022-10-19T17:14:42.730Z,7.32
2022-10-19T17:19:01.626Z,5.85
2022-10-19T17:23:18.832Z,6.20
2022-10-19T17:27:36.006Z,8.90
2022-10-19T17:31:54.057Z,10.65
2022-10-19T17:36:13.969Z,13.77
2022-10-19T17:40:31.261Z,13.18
2022-10-19T17:44:48.445Z,12.35
2022-10-19T17:49:05.722Z,9.77
2022-10-19T17:53:22.937Z,18.75
2022-10-19T17:57:40.614Z,28.02
2022-10-19T18:01:57.837Z,19.52
2022-10-19T18:06:17.986Z,22.17
2022-10-19T18:10:36.011Z,22.67
2022-10-19T18:14:53.310Z,26.70
2022-10-19T18:19:10.892Z,22.50
2022-10-19T18:23:28.188Z,17.58
2022-10-19T18:27:45.439Z,20.15
2022-10-19T18:32:02.808Z,18.30
2022-10-19T18:36:20.124Z,21.08
2022-10-19T18:40:38.052Z,21.75
2022-10-19T18:44:55.529Z,26.40
2022-10-19T18:49:12.848Z,23.75
2022-10-19T18:53:31.233Z,22.85
2022-10-19T18:57:48.505Z,26.67
2022-10-19T19:02:07.835Z,24.08
2022-10-19T19:06:31.718Z,35.47
2022-10-19T19:10:48.954Z,63.40
2022-10-19T19:15:08.476Z,46.67
2022-10-19T19:19:28.563Z,30.05
2022-10-19T19:23:47.270Z,27.58
2022-10-19T19:28:04.499Z,32.00
2022-10-19T19:32:22.051Z,26.60
2022-10-19T19:36:46.437Z,32.60
2022-10-19T19:41:05.803Z,31.38
2022-10-19T19:45:22.974Z,35.20
2022-10-19T19:49:40.268Z,29.38
2022-10-19T19:53:57.693Z,32.42
2022-10-19T19:58:15.997Z,28.95
2022-10-19T20:02:37.203Z,32.92
2022-10-19T20:06:54.430Z,32.63
2022-10-19T20:11:14.805Z,28.60
2022-10-19T20:15:32.315Z,26.70
2022-10-19T20:19:50.172Z,35.83
2022-10-19T20:24:08.209Z,31.20
2022-10-19T20:28:26.886Z,31.30
2022-10-19T20:32:44.085Z,32.33
2022-10-19T20:37:01.820Z,30.67
2022-10-19T20:41:20.822Z,25.97
2022-10-19T20:45:38.026Z,27.33
2022-10-19T20:49:55.296Z,35.85
2022-10-19T20:54:13.268Z,27.00
2022-10-19T20:58:30.528Z,29.03
2022-10-19T21:02:47.747Z,27.80
2022-10-19T21:07:05.147Z,27.35
2022-10-19T21:11:25.449Z,21.58
2022-10-19T21:15:42.653Z,22.17
2022-10-19T21:19:59.853Z,19.58
2022-10-19T21:24:22.915Z,21.42
2022-10-19T21:28:45.215Z,22.20
2022-10-19T21:33:02.546Z,16.70
2022-10-19T21:37:19.782Z,16.33
2022-10-19T21:41:37.237Z,15.05
2022-10-19T21:45:54.673Z,17.55
2022-10-19T21:50:11.873Z,14.55
2022-10-19T21:54:29.365Z,9.77
2022-10-19T21:58:53.689Z,9.77
2022-10-19T22:03:10.898Z,11.15
2022-10-19T22:07:28.250Z,11.02
2022-10-19T22:11:45.858Z,12.95
2022-10-19T22:16:29.681Z,16.27
2022-10-19T22:20:46.933Z,18.25
2022-10-19T22:25:04.353Z,14.75
2022-10-19T22:29:21.572Z,16.02
2022-10-19T22:33:39.670Z,14.57
2022-10-19T22:37:56.853Z,12.95
2022-10-19T22:42:14.906Z,15.30
2022-10-19T22:46:32.372Z,14.25
2022-10-19T22:50:55.012Z,16.13
2022-10-19T22:55:12.221Z,15.90
2022-10-19T22:59:29.432Z,13.65
2022-10-19T23:03:46.663Z,13.68
2022-10-19T23:08:03.987Z,17.52
2022-10-19T23:12:21.311Z,16.95
2022-10-19T23:16:38.488Z,17.05
2022-10-19T23:20:57.213Z,15.95
2022-10-19T23:25:14.394Z,18.25
2022-10-19T23:29:31.599Z,20.88
2022-10-19T23:33:48.865Z,24.75
2022-10-19T23:38:06.011Z,19.38
2022-10-19T23:42:23.253Z,20.08
2022-10-19T23:46:40.460Z,22.38
2022-10-19T23:51:09.379Z,22.45
2022-10-19T23:59:43.616Z,18.70
